createdAt,value
2018-10-21T00:01:11.240Z,10.94
2018-10-21T00:03:39.652Z,10.93
2018-10-21T00:06:07.980Z,10.96
2018-10-21T00:08:36.311Z,11.04
2018-10-21T00:11:04.676Z,11.11
2018-10-21T00:13:33.273Z,11.16
2018-10-21T00:16:01.688Z,11.12
2018-10-21T00:18:30.062Z,11.12
2018-10-21T00:20:58.415Z,11.18
2018-10-21T00:23:26.720Z,11.23
2018-10-21T00:25:55.124Z,11.18
2018-10-21T00:28:23.450Z,11.26
2018-10-21T00:30:51.769Z,11.13
2018-10-21T00:33:20.125Z,11.16
2018-10-21T00:35:48.452Z,11.14
2018-10-21T00:38:16.756Z,11.15
2018-10-21T00:40:45.128Z,11.17
2018-10-21T00:43:13.432Z,11.08
2018-10-21T00:45:41.751Z,10.98
2018-10-21T00:48:10.064Z,10.98
2018-10-21T00:50:38.623Z,10.95
2018-10-21T00:53:06.936Z,10.96
2018-10-21T00:55:35.249Z,10.99
2018-10-21T00:58:03.562Z,10.93
2018-10-21T01:00:31.868Z,11.06
2018-10-21T01:03:00.316Z,11.04
2018-10-21T01:05:28.636Z,11.09
2018-10-21T01:07:56.951Z,11.00
2018-10-21T01:10:25.475Z,11.06
2018-10-21T01:12:53.779Z,11.00
2018-10-21T01:15:22.088Z,11.05
2018-10-21T01:17:50.684Z,11.04
2018-10-21T01:20:19.648Z,11.07
2018-10-21T01:22:47.961Z,11.12
2018-10-21T01:25:16.431Z,11.03
2018-10-21T01:27:44.728Z,11.04
2018-10-21T01:30:13.427Z,11.07
2018-10-21T01:32:41.812Z,11.08
2018-10-21T01:35:10.176Z,11.09
2018-10-21T01:37:38.729Z,11.08
2018-10-21T01:40:28.748Z,11.17
2018-10-21T01:42:57.220Z,11.10
2018-10-21T01:45:26.068Z,10.91
2018-10-21T01:47:54.704Z,10.87
2018-10-21T01:50:23.744Z,10.92
2018-10-21T01:52:52.069Z,10.95
2018-10-21T01:55:20.384Z,10.83
2018-10-21T01:57:48.708Z,10.85
2018-10-21T02:00:18.038Z,10.90
2018-10-21T02:02:46.608Z,10.86
2018-10-21T02:05:15.052Z,10.80
2018-10-21T02:07:43.471Z,10.72
2018-10-21T02:10:11.856Z,10.71
2018-10-21T02:12:40.232Z,10.59
2018-10-21T02:15:09.519Z,10.65
2018-10-21T02:17:37.748Z,10.65
2018-10-21T02:20:07.203Z,10.55
2018-10-21T02:22:35.520Z,10.55
2018-10-21T02:25:04.047Z,10.56
2018-10-21T02:27:32.624Z,10.48
2018-10-21T02:30:00.981Z,10.39
2018-10-21T02:32:30.360Z,10.32
2018-10-21T02:34:58.889Z,10.29
2018-10-21T02:37:27.241Z,10.33
2018-10-21T02:39:55.582Z,10.32
2018-10-21T02:42:24.037Z,10.30
2018-10-21T02:44:52.376Z,10.32
2018-10-21T02:47:20.757Z,10.31
2018-10-21T02:49:49.150Z,10.36
2018-10-21T02:52:17.497Z,10.42
2018-10-21T02:54:45.877Z,10.36
2018-10-21T02:57:15.149Z,10.39
2018-10-21T02:59:43.415Z,10.43
2018-10-21T03:02:11.790Z,10.52
2018-10-21T03:04:40.144Z,10.52
2018-10-21T03:07:08.516Z,10.63
2018-10-21T03:09:36.848Z,10.63
2018-10-21T03:12:05.605Z,10.56
2018-10-21T03:14:33.951Z,10.62
2018-10-21T03:17:02.305Z,10.52
2018-10-21T03:19:30.699Z,10.52
2018-10-21T03:21:59.040Z,10.50
2018-10-21T03:24:27.368Z,10.60
2018-10-21T03:26:55.741Z,10.65
2018-10-21T03:29:24.101Z,10.67
2018-10-21T03:31:52.477Z,10.75
2018-10-21T03:34:20.889Z,10.73
2018-10-21T03:36:49.248Z,10.80
2018-10-21T03:39:17.581Z,10.83
2018-10-21T03:41:45.920Z,10.85
2018-10-21T03:44:14.307Z,11.01
2018-10-21T03:46:42.772Z,11.08
2018-10-21T03:49:11.101Z,11.07
2018-10-21T03:51:39.531Z,11.06
2018-10-21T03:54:08.901Z,11.03
2018-10-21T03:56:37.226Z,11.08
2018-10-21T03:59:05.818Z,11.00
2018-10-21T04:01:34.145Z,11.09
2018-10-21T04:04:02.505Z,11.21
2018-10-21T04:06:30.874Z,11.19
2018-10-21T04:08:59.208Z,11.28
2018-10-21T04:11:27.544Z,11.28
2018-10-21T04:13:55.890Z,11.28
2018-10-21T04:16:24.212Z,11.37
2018-10-21T04:18:52.660Z,11.40
2018-10-21T04:21:20.976Z,11.34
2018-10-21T04:23:49.361Z,11.41
2018-10-21T04:26:17.672Z,11.38
2018-10-21T04:28:46.009Z,11.44
2018-10-21T04:31:14.332Z,11.37
2018-10-21T04:33:43.895Z,11.52
2018-10-21T04:36:13.999Z,11.52
2018-10-21T04:38:55.508Z,11.59
2018-10-21T04:41:23.841Z,11.59
2018-10-21T04:43:52.188Z,11.54
2018-10-21T04:46:20.687Z,11.49
2018-10-21T04:48:49.001Z,11.46
2018-10-21T04:51:17.352Z,11.34
2018-10-21T04:53:45.993Z,11.18
2018-10-21T04:56:14.332Z,11.26
2018-10-21T04:58:42.668Z,11.12
2018-10-21T05:01:11.036Z,11.25
2018-10-21T05:03:40.372Z,11.26
2018-10-21T05:06:08.780Z,11.12
2018-10-21T05:08:37.116Z,11.16
2018-10-21T05:11:05.939Z,11.13
2018-10-21T05:13:35.339Z,10.98
2018-10-21T05:16:03.725Z,10.82
2018-10-21T05:18:32.132Z,10.85
2018-10-21T05:28:10.018Z,10.52
2018-10-21T05:30:38.368Z,10.58
2018-10-21T05:33:06.824Z,10.45
2018-10-21T05:35:35.225Z,10.40
2018-10-21T05:38:03.668Z,10.55
2018-10-21T05:40:32.017Z,10.53
2018-10-21T05:43:00.352Z,10.44
2018-10-21T05:45:28.697Z,10.28
2018-10-21T05:47:58.237Z,10.36
2018-10-21T05:50:26.892Z,10.41
2018-10-21T05:52:55.300Z,10.45
2018-10-21T05:55:23.880Z,10.41
2018-10-21T05:57:52.251Z,10.63
2018-10-21T06:00:21.131Z,10.67
2018-10-21T06:02:49.581Z,10.78
2018-10-21T06:05:44.176Z,10.90
2018-10-21T06:08:12.565Z,10.79
2018-10-21T06:10:41.664Z,10.73
2018-10-21T06:13:10.220Z,10.90
2018-10-21T06:15:42.164Z,10.94
2018-10-21T06:18:17.899Z,11.02
2018-10-21T06:20:49.244Z,11.04
2018-10-21T06:23:17.559Z,11.22
2018-10-21T06:25:45.875Z,11.24
2018-10-21T06:28:14.248Z,11.22
2018-10-21T06:30:42.612Z,11.09
2018-10-21T06:33:10.999Z,11.21
2018-10-21T06:35:39.283Z,11.47
2018-10-21T06:38:07.615Z,11.48
2018-10-21T06:40:35.945Z,11.42
2018-10-21T06:43:04.318Z,11.53
2018-10-21T06:45:32.708Z,11.55
2018-10-21T06:48:01.019Z,11.64
2018-10-21T06:50:29.349Z,11.62
2018-10-21T06:52:57.676Z,11.65
2018-10-21T06:55:26.023Z,11.70
2018-10-21T06:57:55.351Z,11.74
2018-10-21T07:00:23.683Z,11.77
2018-10-21T07:02:52.040Z,11.61
2018-10-21T07:05:31.660Z,11.64
2018-10-21T07:08:00.059Z,11.80
2018-10-21T07:10:28.545Z,12.01
2018-10-21T07:12:56.901Z,11.98
2018-10-21T07:15:25.419Z,12.10
2018-10-21T07:17:53.683Z,12.03
2018-10-21T07:20:22.037Z,12.09
2018-10-21T07:22:50.453Z,12.07
2018-10-21T07:25:18.873Z,12.22
2018-10-21T07:27:48.334Z,12.39
2018-10-21T07:30:17.768Z,12.08
2018-10-21T07:32:46.150Z,12.33
2018-10-21T07:35:15.174Z,12.33
2018-10-21T07:37:45.677Z,12.41
2018-10-21T07:40:14.198Z,12.44
2018-10-21T07:42:43.627Z,12.66
2018-10-21T07:45:12.131Z,12.57
2018-10-21T07:47:40.546Z,12.73
2018-10-21T07:50:08.916Z,12.95
2018-10-21T07:52:37.282Z,12.90
2018-10-21T07:55:05.793Z,13.03
2018-10-21T07:57:34.097Z,13.10
2018-10-21T08:00:02.480Z,13.27
2018-10-21T08:02:30.850Z,13.35
2018-10-21T08:04:59.192Z,13.35
2018-10-21T08:07:39.001Z,13.56
2018-10-21T08:10:07.441Z,13.38
2018-10-21T08:12:35.768Z,13.26
2018-10-21T08:15:04.185Z,13.19
2018-10-21T08:17:32.541Z,13.40
2018-10-21T08:20:00.945Z,13.45
2018-10-21T08:22:29.305Z,13.18
2018-10-21T08:24:57.665Z,13.25
2018-10-21T08:27:26.087Z,13.47
2018-10-21T08:29:54.437Z,13.57
2018-10-21T08:32:22.792Z,13.58
2018-10-21T08:34:51.235Z,13.43
2018-10-21T08:37:19.620Z,13.65
2018-10-21T08:39:48.179Z,13.86
2018-10-21T08:42:16.524Z,13.94
2018-10-21T08:44:44.885Z,14.00
2018-10-21T08:47:13.262Z,13.86
2018-10-21T08:49:41.626Z,13.78
2018-10-21T08:52:10.009Z,14.05
2018-10-21T08:54:38.364Z,14.22
2018-10-21T08:57:07.036Z,14.18
2018-10-21T08:59:35.400Z,14.44
2018-10-21T09:02:03.770Z,14.43
2018-10-21T09:04:32.133Z,14.42
2018-10-21T09:07:00.508Z,14.57
2018-10-21T09:09:28.854Z,14.47
2018-10-21T09:11:57.227Z,14.56
2018-10-21T09:14:25.592Z,14.56
2018-10-21T09:16:53.942Z,14.74
2018-10-21T09:19:22.484Z,14.86
2018-10-21T09:21:50.860Z,15.09
2018-10-21T09:24:19.527Z,14.98
2018-10-21T09:26:47.909Z,15.14
2018-10-21T09:29:16.253Z,15.11
2018-10-21T09:31:44.738Z,15.08
2018-10-21T09:34:13.161Z,15.24
2018-10-21T09:36:41.486Z,14.99
2018-10-21T09:39:12.857Z,14.98
2018-10-21T09:41:41.632Z,15.04
2018-10-21T09:44:10.717Z,15.17
2018-10-21T09:46:39.612Z,15.14
2018-10-21T09:49:08.644Z,15.07
2018-10-21T09:51:37.393Z,15.33
2018-10-21T09:54:05.946Z,14.70
2018-10-21T09:56:34.567Z,14.79
2018-10-21T09:59:02.949Z,15.20
2018-10-21T10:01:36.570Z,15.36
2018-10-21T10:04:05.152Z,15.50
2018-10-21T10:06:33.536Z,15.57
2018-10-21T10:09:01.877Z,15.76
2018-10-21T10:11:30.285Z,15.63
2018-10-21T10:13:58.646Z,15.48
2018-10-21T10:16:26.996Z,15.72
2018-10-21T10:18:55.364Z,15.47
2018-10-21T10:21:23.715Z,15.58
2018-10-21T10:23:52.095Z,15.57
2018-10-21T10:26:20.433Z,15.54
2018-10-21T10:28:48.789Z,15.32
2018-10-21T10:31:17.184Z,15.35
2018-10-21T10:33:45.501Z,15.42
2018-10-21T10:36:13.969Z,15.32
2018-10-21T10:38:42.261Z,15.52
2018-10-21T10:41:10.611Z,15.78
2018-10-21T10:43:38.988Z,16.05
2018-10-21T10:46:07.360Z,16.19
2018-10-21T10:48:35.667Z,16.14
2018-10-21T10:51:04.259Z,16.31
2018-10-21T10:53:32.605Z,16.27
2018-10-21T10:56:00.936Z,16.01
2018-10-21T10:58:29.301Z,16.24
2018-10-21T11:00:57.759Z,16.25
2018-10-21T11:03:26.103Z,16.66
2018-10-21T11:05:54.475Z,16.92
2018-10-21T11:08:22.808Z,16.45
2018-10-21T11:10:51.180Z,16.41
2018-10-21T11:13:19.677Z,16.23
2018-10-21T11:15:48.335Z,16.29
2018-10-21T11:18:16.769Z,16.32
2018-10-21T11:20:45.125Z,16.23
2018-10-21T11:23:13.481Z,16.55
2018-10-21T11:25:41.981Z,16.79
2018-10-21T11:28:10.459Z,16.80
2018-10-21T11:30:39.808Z,17.01
2018-10-21T11:33:08.206Z,16.89
2018-10-21T11:35:36.545Z,17.10
2018-10-21T11:38:06.237Z,17.28
2018-10-21T11:40:34.604Z,17.26
2018-10-21T11:43:02.996Z,17.57
2018-10-21T11:45:31.685Z,16.82
2018-10-21T11:48:00.163Z,17.00
2018-10-21T11:50:28.533Z,17.30
2018-10-21T11:52:56.922Z,17.57
2018-10-21T11:55:25.337Z,17.81
2018-10-21T11:57:58.603Z,17.56
2018-10-21T12:00:27.157Z,17.93
2018-10-21T12:02:55.504Z,17.64
2018-10-21T12:05:23.848Z,17.45
2018-10-21T12:07:52.484Z,16.90
2018-10-21T12:10:20.861Z,17.07
2018-10-21T12:12:49.210Z,17.30
2018-10-21T12:15:17.580Z,17.26
2018-10-21T12:17:47.023Z,16.83
2018-10-21T12:20:15.356Z,16.80
2018-10-21T12:22:43.869Z,16.73
2018-10-21T12:25:12.364Z,16.81
2018-10-21T12:27:40.611Z,17.05
2018-10-21T12:30:09.411Z,17.05
2018-10-21T12:32:37.964Z,16.66
2018-10-21T12:35:08.913Z,16.63
2018-10-21T12:37:37.346Z,16.66
2018-10-21T12:40:06.916Z,17.01
2018-10-21T12:42:35.217Z,16.57
2018-10-21T12:45:04.293Z,16.25
2018-10-21T12:47:32.631Z,16.44
2018-10-21T12:50:00.981Z,16.25
2018-10-21T12:52:29.352Z,16.06
2018-10-21T12:54:57.790Z,16.38
2018-10-21T12:57:27.172Z,16.26
2018-10-21T12:59:55.696Z,16.31
2018-10-21T13:02:24.705Z,16.47
2018-10-21T13:04:53.081Z,16.74
2018-10-21T13:07:21.482Z,16.84
2018-10-21T13:09:50.037Z,16.60
2018-10-21T13:12:18.372Z,16.60
2018-10-21T13:14:46.757Z,16.30
2018-10-21T13:17:15.092Z,16.15
2018-10-21T13:19:43.559Z,16.39
2018-10-21T13:22:11.969Z,16.15
2018-10-21T13:24:40.414Z,16.38
2018-10-21T13:27:08.799Z,16.46
2018-10-21T13:29:37.183Z,16.41
2018-10-21T13:32:05.704Z,16.56
2018-10-21T13:34:34.124Z,16.52
2018-10-21T13:37:02.465Z,16.17
2018-10-21T13:39:30.785Z,16.02
2018-10-21T13:41:59.213Z,16.37
2018-10-21T13:44:27.654Z,16.13
2018-10-21T13:46:55.992Z,16.14
2018-10-21T13:49:24.330Z,15.76
2018-10-21T13:51:52.794Z,15.94
2018-10-21T13:54:21.033Z,15.83
2018-10-21T13:56:49.633Z,16.09
2018-10-21T13:59:18.985Z,16.13
2018-10-21T14:01:48.380Z,15.94
2018-10-21T14:04:16.869Z,15.97
2018-10-21T14:06:45.133Z,15.83
2018-10-21T14:09:14.325Z,15.79
2018-10-21T14:11:42.768Z,16.00
2018-10-21T14:14:11.900Z,15.82
2018-10-21T14:16:40.575Z,15.75
2018-10-21T14:19:09.300Z,15.91
2018-10-21T14:21:37.710Z,15.86
2018-10-21T14:24:06.386Z,15.81
2018-10-21T14:26:34.869Z,16.02
2018-10-21T14:29:03.312Z,15.95
2018-10-21T14:31:31.661Z,16.06
2018-10-21T14:34:00.066Z,15.94
2018-10-21T14:36:28.420Z,15.98
2018-10-21T14:38:56.766Z,16.00
2018-10-21T14:41:25.157Z,15.63
2018-10-21T14:43:53.497Z,15.87
2018-10-21T14:46:21.849Z,15.73
2018-10-21T14:48:50.331Z,15.90
2018-10-21T14:51:18.700Z,15.95
2018-10-21T14:53:47.057Z,15.79
2018-10-21T14:56:15.542Z,15.97
2018-10-21T14:58:43.811Z,15.99
2018-10-21T15:01:12.596Z,16.06
2018-10-21T15:03:40.975Z,16.00
2018-10-21T15:06:09.333Z,15.77
2018-10-21T15:08:37.680Z,15.81
2018-10-21T15:11:07.128Z,15.86
2018-10-21T15:13:35.484Z,15.79
2018-10-21T15:16:03.886Z,15.69
2018-10-21T15:18:32.922Z,15.54
2018-10-21T15:21:01.293Z,15.56
2018-10-21T15:23:29.830Z,15.56
2018-10-21T15:25:58.178Z,15.51
2018-10-21T15:28:26.497Z,15.50
2018-10-21T15:30:55.873Z,15.56
2018-10-21T15:33:24.477Z,15.48
2018-10-21T15:35:53.838Z,15.63
2018-10-21T15:38:22.173Z,15.76
2018-10-21T15:40:50.665Z,15.66
2018-10-21T15:43:19.008Z,15.73
2018-10-21T15:45:47.393Z,15.83
2018-10-21T15:48:15.749Z,15.63
2018-10-21T15:50:44.161Z,15.73
2018-10-21T15:53:13.221Z,15.62
2018-10-21T15:55:41.698Z,15.57
2018-10-21T15:58:10.078Z,15.72
2018-10-21T16:00:39.485Z,15.56
2018-10-21T16:03:08.876Z,15.76
2018-10-21T16:05:37.397Z,16.27
2018-10-21T16:08:05.877Z,16.05
2018-10-21T16:10:35.190Z,15.74
2018-10-21T16:13:04.188Z,15.70
2018-10-21T16:15:32.620Z,15.58
2018-10-21T16:18:01.037Z,15.54
2018-10-21T16:20:29.404Z,15.38
2018-10-21T16:22:57.780Z,15.49
2018-10-21T16:25:26.246Z,15.40
2018-10-21T16:27:54.624Z,15.35
2018-10-21T16:30:23.891Z,15.48
2018-10-21T16:32:52.344Z,15.37
2018-10-21T16:35:20.726Z,15.41
2018-10-21T16:37:49.227Z,15.47
2018-10-21T16:40:17.843Z,15.52
2018-10-21T16:42:46.199Z,15.42
2018-10-21T16:45:15.129Z,15.27
2018-10-21T16:47:43.413Z,15.38
2018-10-21T16:50:14.084Z,15.33
2018-10-21T16:52:43.623Z,15.30
2018-10-21T16:55:12.580Z,15.25
2018-10-21T16:57:40.981Z,15.32
2018-10-21T17:00:12.300Z,15.33
2018-10-21T17:02:40.779Z,15.22
2018-10-21T17:05:09.479Z,15.13
2018-10-21T17:07:37.977Z,15.00
2018-10-21T17:10:07.046Z,15.05
2018-10-21T17:12:35.181Z,15.07
2018-10-21T17:15:03.610Z,14.93
2018-10-21T17:17:31.961Z,14.91
2018-10-21T17:20:00.324Z,14.65
2018-10-21T17:22:28.664Z,14.66
2018-10-21T17:24:57.046Z,14.58
2018-10-21T17:27:25.430Z,14.54
2018-10-21T17:29:53.780Z,14.58
2018-10-21T17:32:22.132Z,14.50
2018-10-21T17:34:51.632Z,14.36
2018-10-21T17:37:19.984Z,14.37
2018-10-21T17:39:48.361Z,14.27
2018-10-21T17:42:16.741Z,14.23
2018-10-21T17:44:45.213Z,14.21
2018-10-21T17:47:13.601Z,14.31
2018-10-21T17:49:41.967Z,14.27
2018-10-21T17:52:10.617Z,14.16
2018-10-21T17:54:38.912Z,14.18
2018-10-21T17:57:07.320Z,14.20
2018-10-21T17:59:35.717Z,14.18
2018-10-21T18:02:04.130Z,14.00
2018-10-21T18:04:32.521Z,13.86
2018-10-21T18:07:00.922Z,13.96
2018-10-21T18:09:29.264Z,13.94
2018-10-21T18:11:57.616Z,13.87
2018-10-21T18:14:26.177Z,13.91
2018-10-21T18:16:54.544Z,13.89
2018-10-21T18:19:22.897Z,13.81
2018-10-21T18:21:51.337Z,13.62
2018-10-21T18:24:19.816Z,13.72
2018-10-21T18:26:48.183Z,13.75
2018-10-21T18:29:16.745Z,13.63
2018-10-21T18:31:45.145Z,13.60
2018-10-21T18:34:13.582Z,13.65
2018-10-21T18:36:42.018Z,13.56
2018-10-21T18:39:11.164Z,13.59
2018-10-21T18:41:39.757Z,13.65
2018-10-21T18:44:08.994Z,13.63
2018-10-21T18:46:38.206Z,13.60
2018-10-21T18:49:06.826Z,13.64
2018-10-21T18:51:35.596Z,13.56
2018-10-21T18:54:04.073Z,13.54
2018-10-21T18:56:32.449Z,13.61
2018-10-21T18:59:01.353Z,13.59
2018-10-21T19:01:30.519Z,13.41
2018-10-21T19:03:59.191Z,13.45
2018-10-21T19:06:28.241Z,13.49
2018-10-21T19:08:56.955Z,13.55
2018-10-21T19:11:25.653Z,13.46
2018-10-21T19:13:55.160Z,13.57
2018-10-21T19:16:23.644Z,13.68
2018-10-21T19:18:52.395Z,13.71
2018-10-21T19:21:21.519Z,13.57
2018-10-21T19:23:50.085Z,13.60
2018-10-21T19:26:18.504Z,13.44
2018-10-21T19:28:47.268Z,13.37
2018-10-21T19:31:17.436Z,13.41
2018-10-21T19:33:45.869Z,13.44
2018-10-21T19:36:14.245Z,13.62
2018-10-21T19:38:42.621Z,13.57
2018-10-21T19:41:11.203Z,13.64
2018-10-21T19:43:41.722Z,13.48
2018-10-21T19:46:10.101Z,13.60
2018-10-21T19:48:38.404Z,13.58
2018-10-21T19:51:07.008Z,13.68
2018-10-21T19:53:35.383Z,13.61
2018-10-21T19:56:03.848Z,13.66
2018-10-21T19:58:32.236Z,13.68
2018-10-21T20:01:00.660Z,13.69
2018-10-21T20:03:30.245Z,13.84
2018-10-21T20:05:58.611Z,13.88
2018-10-21T20:08:27.013Z,13.84
2018-10-21T20:10:56.448Z,13.85
2018-10-21T20:13:24.777Z,13.80
2018-10-21T20:15:53.112Z,13.97
2018-10-21T20:18:21.489Z,13.98
2018-10-21T20:20:49.809Z,14.05
2018-10-21T20:23:18.241Z,13.89
2018-10-21T20:25:46.773Z,13.71
2018-10-21T20:28:15.218Z,13.78
2018-10-21T20:30:43.522Z,13.79
2018-10-21T20:33:11.993Z,14.00
2018-10-21T20:35:40.256Z,13.64
2018-10-21T20:38:08.718Z,13.66
2018-10-21T20:40:37.053Z,13.58
2018-10-21T20:43:05.673Z,13.72
2018-10-21T20:45:34.104Z,13.55
2018-10-21T20:48:02.597Z,13.54
2018-10-21T20:50:30.906Z,13.64
2018-10-21T20:52:59.577Z,13.59
2018-10-21T20:55:27.926Z,13.71
2018-10-21T20:57:56.302Z,13.81
2018-10-21T21:00:24.670Z,13.79
2018-10-21T21:02:53.102Z,13.81
2018-10-21T21:05:21.482Z,13.79
2018-10-21T21:07:49.940Z,13.85
2018-10-21T21:10:18.417Z,13.86
2018-10-21T21:12:46.685Z,13.78
2018-10-21T21:15:15.034Z,13.66
2018-10-21T21:17:43.416Z,13.93
2018-10-21T21:20:11.858Z,13.77
2018-10-21T21:22:41.228Z,13.90
2018-10-21T21:25:09.564Z,13.86
2018-10-21T21:27:37.893Z,13.90
2018-10-21T21:30:07.109Z,13.89
2018-10-21T21:32:35.440Z,13.57
2018-10-21T21:35:03.812Z,13.77
2018-10-21T21:37:32.189Z,13.87
2018-10-21T21:40:00.621Z,13.65
2018-10-21T21:42:28.921Z,13.67
2018-10-21T21:44:57.312Z,13.74
2018-10-21T21:47:25.765Z,13.64
2018-10-21T21:49:54.108Z,13.73
2018-10-21T21:52:22.493Z,13.79
2018-10-21T21:54:51.132Z,13.67
2018-10-21T21:57:19.476Z,13.47
2018-10-21T21:59:47.870Z,13.37
2018-10-21T22:02:16.244Z,13.35
2018-10-21T22:04:44.782Z,13.36
2018-10-21T22:07:13.325Z,13.35
2018-10-21T22:09:41.660Z,13.47
2018-10-21T22:12:10.144Z,13.53
2018-10-21T22:14:38.485Z,13.68
2018-10-21T22:17:06.808Z,13.77
2018-10-21T22:19:35.272Z,13.78
2018-10-21T22:22:03.686Z,13.84
2018-10-21T22:24:31.992Z,13.83
2018-10-21T22:27:00.344Z,13.75
2018-10-21T22:29:28.713Z,13.73
2018-10-21T22:31:57.044Z,13.75
2018-10-21T22:34:25.377Z,13.84
2018-10-21T22:36:57.185Z,13.83
2018-10-21T22:39:25.608Z,13.69
2018-10-21T22:41:53.963Z,13.79
2018-10-21T22:44:22.313Z,13.69
2018-10-21T22:46:50.811Z,13.87
2018-10-21T22:49:19.057Z,13.72
2018-10-21T22:51:47.381Z,13.76
2018-10-21T22:54:15.813Z,13.92
2018-10-21T22:56:44.257Z,13.77
2018-10-21T22:59:12.600Z,13.81
2018-10-21T23:01:40.932Z,13.65
2018-10-21T23:04:10.307Z,13.53
2018-10-21T23:06:38.581Z,13.72
2018-10-21T23:09:08.917Z,13.88
2018-10-21T23:11:37.426Z,13.89
2018-10-21T23:14:06.013Z,13.79
2018-10-21T23:16:34.340Z,13.87
2018-10-21T23:19:14.197Z,13.85
2018-10-21T23:21:42.522Z,13.58
2018-10-21T23:24:10.951Z,13.58
2018-10-21T23:26:39.428Z,13.61
2018-10-21T23:29:07.878Z,13.59
2018-10-21T23:31:36.168Z,13.73
2018-10-21T23:34:05.055Z,13.60
2018-10-21T23:36:33.404Z,13.52
2018-10-21T23:39:01.837Z,13.48
2018-10-21T23:41:30.196Z,13.60
2018-10-21T23:43:58.547Z,13.47
2018-10-21T23:46:27.476Z,13.43
2018-10-21T23:48:55.840Z,13.47
2018-10-21T23:51:24.184Z,13.28
2018-10-21T23:53:52.816Z,13.13
2018-10-21T23:56:21.260Z,13.01
2018-10-21T23:58:49.831Z,13.11
